createdAt,value
2023-05-21T00:01:26.486Z,16.78
2023-05-21T00:04:15.781Z,16.66
2023-05-21T00:07:05.185Z,16.73
2023-05-21T00:09:53.000Z,16.77
2023-05-21T00:12:41.795Z,16.71
2023-05-21T00:15:29.962Z,16.69
2023-05-21T00:18:18.292Z,16.71
2023-05-21T00:21:06.765Z,16.73
2023-05-21T00:23:56.895Z,16.68
2023-05-21T00:26:44.884Z,16.80
2023-05-21T00:29:32.697Z,16.54
2023-05-21T00:32:20.476Z,16.87
2023-05-21T00:35:09.425Z,16.71
2023-05-21T00:37:57.510Z,16.72
2023-05-21T00:40:46.634Z,16.76
2023-05-21T00:43:34.485Z,16.64
2023-05-21T00:46:23.173Z,16.83
2023-05-21T00:49:11.776Z,16.78
2023-05-21T00:52:01.637Z,16.90
2023-05-21T00:54:50.899Z,16.62
2023-05-21T00:57:41.404Z,16.64
2023-05-21T01:00:29.430Z,16.74
2023-05-21T01:03:17.548Z,16.51
2023-05-21T01:06:06.314Z,16.77
2023-05-21T01:08:56.323Z,16.66
2023-05-21T01:11:47.731Z,16.59
2023-05-21T01:14:38.642Z,16.63
2023-05-21T01:17:27.697Z,16.74
2023-05-21T01:20:18.356Z,16.70
2023-05-21T01:23:07.801Z,16.60
2023-05-21T01:25:55.702Z,16.60
2023-05-21T01:28:43.483Z,16.62
2023-05-21T01:31:39.149Z,16.69
2023-05-21T01:34:33.955Z,16.56
2023-05-21T01:37:27.627Z,16.58
2023-05-21T01:40:24.643Z,16.54
2023-05-21T01:43:13.946Z,16.46
2023-05-21T01:46:02.999Z,16.40
2023-05-21T01:48:52.281Z,16.27
2023-05-21T01:51:40.384Z,16.44
2023-05-21T01:54:27.978Z,16.32
2023-05-21T01:57:17.335Z,16.44
2023-05-21T02:00:06.327Z,16.59
2023-05-21T02:02:54.121Z,16.45
2023-05-21T02:05:42.082Z,16.46
2023-05-21T02:08:29.788Z,16.41
2023-05-21T02:11:17.614Z,16.36
2023-05-21T02:14:08.087Z,16.52
2023-05-21T02:16:56.837Z,16.50
2023-05-21T02:19:44.926Z,16.53
2023-05-21T02:22:32.688Z,16.39
2023-05-21T02:25:20.877Z,16.42
2023-05-21T02:28:08.630Z,16.46
2023-05-21T02:30:58.177Z,16.40
2023-05-21T02:33:46.414Z,16.35
2023-05-21T02:36:36.212Z,16.30
2023-05-21T02:39:23.923Z,16.44
2023-05-21T02:42:11.757Z,16.35
2023-05-21T02:44:59.511Z,16.38
2023-05-21T02:47:48.653Z,16.34
2023-05-21T02:50:36.351Z,16.30
2023-05-21T02:53:24.022Z,16.36
2023-05-21T02:56:12.647Z,16.28
2023-05-21T02:59:00.576Z,16.18
2023-05-21T03:01:48.288Z,16.32
2023-05-21T03:04:39.188Z,16.26
2023-05-21T03:07:27.082Z,16.19
2023-05-21T03:10:14.844Z,16.24
2023-05-21T03:13:05.684Z,16.05
2023-05-21T03:15:56.662Z,16.24
2023-05-21T03:18:44.377Z,16.15
2023-05-21T03:21:33.868Z,16.18
2023-05-21T03:24:21.589Z,16.28
2023-05-21T03:27:09.454Z,15.99
2023-05-21T03:29:57.691Z,16.24
2023-05-21T03:32:46.039Z,16.29
2023-05-21T03:35:34.291Z,16.32
2023-05-21T03:38:23.420Z,16.26
2023-05-21T03:41:11.946Z,16.27
2023-05-21T03:43:59.684Z,16.21
2023-05-21T03:46:47.439Z,16.22
2023-05-21T03:49:35.154Z,16.27
2023-05-21T03:52:23.011Z,16.36
2023-05-21T03:55:12.539Z,16.11
2023-05-21T03:58:00.539Z,16.23
2023-05-21T04:00:48.385Z,16.30
2023-05-21T04:03:37.965Z,16.17
2023-05-21T04:06:28.119Z,16.19
2023-05-21T04:09:16.510Z,16.03
2023-05-21T04:12:06.305Z,15.94
2023-05-21T04:14:54.008Z,15.90
2023-05-21T04:17:41.787Z,15.83
2023-05-21T04:20:29.701Z,15.49
2023-05-21T04:23:17.659Z,15.41
2023-05-21T04:26:05.839Z,15.51
2023-05-21T04:28:59.434Z,15.18
2023-05-21T04:31:47.149Z,15.14
2023-05-21T04:34:34.950Z,15.34
2023-05-21T04:37:24.696Z,15.36
2023-05-21T04:40:18.246Z,15.18
2023-05-21T04:43:06.030Z,15.28
2023-05-21T04:45:55.653Z,15.21
2023-05-21T04:48:43.431Z,15.19
2023-05-21T04:51:31.305Z,15.15
2023-05-21T04:54:19.022Z,15.54
2023-05-21T04:57:07.340Z,15.43
2023-05-21T04:59:55.225Z,15.41
2023-05-21T05:02:44.427Z,15.40
2023-05-21T05:05:32.229Z,15.30
2023-05-21T05:08:19.913Z,15.19
2023-05-21T05:11:07.569Z,15.13
2023-05-21T05:13:55.352Z,15.07
2023-05-21T05:16:43.095Z,14.95
2023-05-21T05:19:32.549Z,15.01
2023-05-21T05:22:20.351Z,14.61
2023-05-21T05:25:08.598Z,15.13
2023-05-21T05:27:56.349Z,15.01
2023-05-21T05:30:44.168Z,14.87
2023-05-21T05:33:31.947Z,15.13
2023-05-21T05:36:21.255Z,15.05
2023-05-21T05:39:08.978Z,14.99
2023-05-21T05:41:56.664Z,15.08
2023-05-21T05:44:44.387Z,15.18
2023-05-21T05:47:33.434Z,14.87
2023-05-21T05:50:21.301Z,15.19
2023-05-21T05:53:13.246Z,15.15
2023-05-21T05:56:01.223Z,15.15
2023-05-21T05:58:48.942Z,15.24
2023-05-21T06:01:36.672Z,15.28
2023-05-21T06:04:24.457Z,15.29
2023-05-21T06:07:12.202Z,15.21
2023-05-21T06:10:01.327Z,15.18
2023-05-21T06:12:49.331Z,15.27
2023-05-21T06:15:37.186Z,15.30
2023-05-21T06:18:25.115Z,15.17
2023-05-21T06:21:12.889Z,15.39
2023-05-21T06:24:01.085Z,15.34
2023-05-21T06:26:50.170Z,15.29
2023-05-21T06:29:37.943Z,15.26
2023-05-21T06:32:25.895Z,15.26
2023-05-21T06:35:13.711Z,15.16
2023-05-21T06:38:01.692Z,15.28
2023-05-21T06:40:49.640Z,15.18
2023-05-21T06:43:38.667Z,15.11
2023-05-21T06:46:26.427Z,15.15
2023-05-21T06:49:15.101Z,15.09
2023-05-21T06:52:03.277Z,15.07
2023-05-21T06:54:51.197Z,15.08
2023-05-21T06:57:39.684Z,15.21
2023-05-21T07:00:28.849Z,15.38
2023-05-21T07:03:17.422Z,15.27
2023-05-21T07:06:05.497Z,15.47
2023-05-21T07:08:53.209Z,15.32
2023-05-21T07:11:40.969Z,15.42
2023-05-21T07:14:28.692Z,15.59
2023-05-21T07:17:17.841Z,15.25
2023-05-21T07:20:07.801Z,15.39
2023-05-21T07:22:55.631Z,15.59
2023-05-21T07:25:43.511Z,15.64
2023-05-21T07:28:31.219Z,15.50
2023-05-21T07:31:19.015Z,15.66
2023-05-21T07:34:08.152Z,15.78
2023-05-21T07:36:55.929Z,15.87
2023-05-21T07:39:43.650Z,15.74
2023-05-21T07:42:32.167Z,15.76
2023-05-21T07:45:19.897Z,15.83
2023-05-21T07:48:08.177Z,15.76
2023-05-21T07:50:58.266Z,15.98
2023-05-21T07:53:45.986Z,16.14
2023-05-21T07:56:33.675Z,16.21
2023-05-21T07:59:21.388Z,16.23
2023-05-21T08:02:09.217Z,16.27
2023-05-21T08:04:57.761Z,16.29
2023-05-21T08:07:47.245Z,16.43
2023-05-21T08:10:35.048Z,16.47
2023-05-21T08:13:23.250Z,16.29
2023-05-21T08:16:11.476Z,16.63
2023-05-21T08:18:59.319Z,16.67
2023-05-21T08:21:47.745Z,16.67
2023-05-21T08:24:36.898Z,16.69
2023-05-21T08:27:24.610Z,16.53
2023-05-21T08:30:13.292Z,16.78
2023-05-21T08:33:01.349Z,16.80
2023-05-21T08:35:49.135Z,16.82
2023-05-21T08:38:36.863Z,16.86
2023-05-21T08:41:27.089Z,16.88
2023-05-21T08:44:15.630Z,16.91
2023-05-21T08:47:05.377Z,16.90
2023-05-21T08:49:54.229Z,16.98
2023-05-21T08:52:42.712Z,17.01
2023-05-21T08:55:32.615Z,17.02
2023-05-21T08:58:22.321Z,17.10
2023-05-21T09:01:11.742Z,17.15
2023-05-21T09:04:12.241Z,17.14
2023-05-21T09:07:08.405Z,17.22
2023-05-21T09:09:58.270Z,17.22
2023-05-21T09:12:48.442Z,17.23
2023-05-21T09:15:38.333Z,17.25
2023-05-21T09:18:27.599Z,17.27
2023-05-21T09:21:26.449Z,17.25
2023-05-21T09:24:15.151Z,17.26
2023-05-21T09:27:03.353Z,16.11
2023-05-21T09:29:51.112Z,17.26
2023-05-21T09:32:40.791Z,17.29
2023-05-21T09:35:28.759Z,17.29
2023-05-21T09:38:16.520Z,17.27
2023-05-21T09:41:06.840Z,17.22
2023-05-21T09:43:54.580Z,17.23
2023-05-21T09:46:42.764Z,17.21
2023-05-21T09:49:32.039Z,17.12
2023-05-21T09:52:26.199Z,17.13
2023-05-21T09:55:15.499Z,17.14
2023-05-21T09:58:04.753Z,17.13
2023-05-21T10:00:54.097Z,17.11
2023-05-21T10:03:43.106Z,17.09
2023-05-21T10:06:33.858Z,17.05
2023-05-21T10:09:22.457Z,16.93
2023-05-21T10:12:11.052Z,16.98
2023-05-21T10:15:02.321Z,16.90
2023-05-21T10:17:51.076Z,16.93
2023-05-21T10:20:39.326Z,16.90
2023-05-21T10:23:30.362Z,16.88
2023-05-21T10:26:19.655Z,16.91
2023-05-21T10:29:09.049Z,17.01
2023-05-21T10:31:57.530Z,16.99
2023-05-21T10:34:47.148Z,17.00
2023-05-21T10:37:35.267Z,17.08
2023-05-21T10:40:24.586Z,17.09
2023-05-21T10:43:35.198Z,17.14
2023-05-21T10:47:17.804Z,17.16
2023-05-21T10:50:30.142Z,17.18
2023-05-21T10:53:26.410Z,17.28
2023-05-21T10:56:24.196Z,17.31
2023-05-21T10:59:21.975Z,17.36
2023-05-21T11:02:12.663Z,17.41
2023-05-21T11:05:01.209Z,17.47
2023-05-21T11:07:56.275Z,17.58
2023-05-21T11:10:45.320Z,17.71
2023-05-21T11:13:49.367Z,17.80
2023-05-21T11:16:37.569Z,17.84
2023-05-21T11:19:36.015Z,17.85
2023-05-21T11:22:25.496Z,17.86
2023-05-21T11:25:13.647Z,17.88
2023-05-21T11:28:06.647Z,17.80
2023-05-21T11:31:24.622Z,17.91
2023-05-21T11:34:16.415Z,17.88
2023-05-21T11:37:30.048Z,17.82
2023-05-21T11:40:26.065Z,17.83
2023-05-21T11:43:14.012Z,17.90
2023-05-21T11:46:02.096Z,17.92
2023-05-21T11:48:53.809Z,17.89
2023-05-21T11:51:42.049Z,17.90
2023-05-21T11:54:34.292Z,17.99
2023-05-21T11:57:22.978Z,17.99
2023-05-21T12:00:16.453Z,17.88
2023-05-21T12:03:05.979Z,18.04
2023-05-21T12:05:55.282Z,18.10
2023-05-21T12:08:43.214Z,18.12
2023-05-21T12:11:31.240Z,18.01
2023-05-21T12:14:19.179Z,18.15
2023-05-21T12:17:08.117Z,18.16
2023-05-21T12:19:56.999Z,18.21
2023-05-21T12:22:46.662Z,18.19
2023-05-21T12:25:34.535Z,18.27
2023-05-21T12:28:22.595Z,18.23
2023-05-21T12:31:16.247Z,18.39
2023-05-21T12:34:04.039Z,18.39
2023-05-21T12:36:52.075Z,18.42
2023-05-21T12:39:42.001Z,18.55
2023-05-21T12:42:31.106Z,18.71
2023-05-21T12:45:21.100Z,18.71
2023-05-21T12:48:09.262Z,18.86
2023-05-21T12:51:00.224Z,18.89
2023-05-21T12:53:48.423Z,18.92
2023-05-21T12:56:46.865Z,18.80
2023-05-21T12:59:51.481Z,18.71
2023-05-21T13:02:41.697Z,18.70
2023-05-21T13:05:29.953Z,18.83
2023-05-21T13:08:17.898Z,18.82
2023-05-21T13:11:05.756Z,18.76
2023-05-21T13:13:54.764Z,18.93
2023-05-21T13:16:42.422Z,18.85
2023-05-21T13:19:30.335Z,18.84
2023-05-21T13:22:18.197Z,18.90
2023-05-21T13:25:07.099Z,18.79
2023-05-21T13:27:55.353Z,18.85
2023-05-21T13:30:44.429Z,18.87
2023-05-21T13:33:32.882Z,18.93
2023-05-21T13:36:20.740Z,18.89
2023-05-21T13:39:08.693Z,19.03
2023-05-21T13:41:56.372Z,19.02
2023-05-21T13:44:44.139Z,19.07
2023-05-21T13:47:33.653Z,19.04
2023-05-21T13:50:21.447Z,19.02
2023-05-21T13:53:09.591Z,19.11
2023-05-21T13:55:57.318Z,19.18
2023-05-21T13:58:46.037Z,19.03
2023-05-21T14:01:33.854Z,19.10
2023-05-21T14:04:23.154Z,19.14
2023-05-21T14:07:12.074Z,19.19
2023-05-21T14:09:59.790Z,19.20
2023-05-21T14:12:47.563Z,19.11
2023-05-21T14:15:35.655Z,19.21
2023-05-21T14:18:23.549Z,19.29
2023-05-21T14:21:12.958Z,19.34
2023-05-21T14:24:00.690Z,19.33
2023-05-21T14:26:48.436Z,19.33
2023-05-21T14:29:36.076Z,19.26
2023-05-21T14:32:23.970Z,19.27
2023-05-21T14:35:11.988Z,19.31
2023-05-21T14:38:01.088Z,19.17
2023-05-21T14:40:48.838Z,19.28
2023-05-21T14:43:36.750Z,19.24
2023-05-21T14:46:24.675Z,19.44
2023-05-21T14:49:13.373Z,19.30
2023-05-21T14:52:01.190Z,19.47
2023-05-21T14:54:50.325Z,19.42
2023-05-21T14:57:38.021Z,19.33
2023-05-21T15:00:25.851Z,19.45
2023-05-21T15:03:13.910Z,19.53
2023-05-21T15:06:01.729Z,19.47
2023-05-21T15:08:49.535Z,19.43
2023-05-21T15:11:39.866Z,19.47
2023-05-21T15:14:27.576Z,19.62
2023-05-21T15:17:15.334Z,19.54
2023-05-21T15:20:04.869Z,19.48
2023-05-21T15:22:56.910Z,19.40
2023-05-21T15:25:52.726Z,19.61
2023-05-21T15:28:41.752Z,19.58
2023-05-21T15:31:29.436Z,19.49
2023-05-21T15:34:18.128Z,19.51
2023-05-21T15:37:06.232Z,19.41
2023-05-21T15:39:54.158Z,19.35
2023-05-21T15:42:41.881Z,19.30
2023-05-21T15:45:30.951Z,19.32
2023-05-21T15:48:22.580Z,19.21
2023-05-21T15:51:10.404Z,19.28
2023-05-21T15:53:58.048Z,19.32
2023-05-21T15:56:47.841Z,19.20
2023-05-21T15:59:35.545Z,19.20
2023-05-21T16:02:24.668Z,19.13
2023-05-21T16:05:12.559Z,19.12
2023-05-21T16:08:00.397Z,19.10
2023-05-21T16:10:48.182Z,19.06
2023-05-21T16:13:35.912Z,19.13
2023-05-21T16:16:24.906Z,19.08
2023-05-21T16:19:14.205Z,19.03
2023-05-21T16:22:02.090Z,18.97
2023-05-21T16:24:49.802Z,18.85
2023-05-21T16:27:37.733Z,19.00
2023-05-21T16:30:25.444Z,18.99
2023-05-21T16:33:13.422Z,18.96
2023-05-21T16:36:02.826Z,18.90
2023-05-21T16:38:50.638Z,18.53
2023-05-21T16:41:38.376Z,18.86
2023-05-21T16:44:26.253Z,18.41
2023-05-21T16:47:14.158Z,18.83
2023-05-21T16:50:01.947Z,18.80
2023-05-21T16:52:51.064Z,18.76
2023-05-21T16:55:39.708Z,18.79
2023-05-21T16:58:27.723Z,18.74
2023-05-21T17:01:15.641Z,18.68
2023-05-21T17:04:03.709Z,18.59
2023-05-21T17:06:51.745Z,18.60
2023-05-21T17:09:40.901Z,18.54
2023-05-21T17:12:28.661Z,18.50
2023-05-21T17:15:16.409Z,18.48
2023-05-21T17:18:04.358Z,18.42
2023-05-21T17:20:52.077Z,18.35
2023-05-21T17:23:39.804Z,18.34
2023-05-21T17:26:28.976Z,18.31
2023-05-21T17:29:19.930Z,18.26
2023-05-21T17:32:08.085Z,18.25
2023-05-21T17:34:55.940Z,18.27
2023-05-21T17:37:43.679Z,18.18
2023-05-21T17:40:31.475Z,18.19
2023-05-21T17:43:20.685Z,18.14
2023-05-21T17:46:08.614Z,18.13
2023-05-21T17:48:56.500Z,18.10
2023-05-21T17:51:44.641Z,18.01
2023-05-21T17:54:32.653Z,18.00
2023-05-21T17:57:21.799Z,18.04
2023-05-21T18:00:12.147Z,17.90
2023-05-21T18:02:59.943Z,17.81
2023-05-21T18:05:47.783Z,17.95
2023-05-21T18:08:35.487Z,17.89
2023-05-21T18:11:24.324Z,17.82
2023-05-21T18:14:12.101Z,17.77
2023-05-21T18:17:01.634Z,17.84
2023-05-21T18:19:49.540Z,17.77
2023-05-21T18:22:37.450Z,17.74
2023-05-21T18:25:25.284Z,17.68
2023-05-21T18:28:13.072Z,17.66
2023-05-21T18:31:03.846Z,17.54
2023-05-21T18:33:53.290Z,17.57
2023-05-21T18:36:41.132Z,17.53
2023-05-21T18:39:29.186Z,17.45
2023-05-21T18:42:17.116Z,17.55
2023-05-21T18:45:08.789Z,17.61
2023-05-21T18:47:56.894Z,17.56
2023-05-21T18:50:46.399Z,17.49
2023-05-21T18:53:34.568Z,17.62
2023-05-21T18:56:22.934Z,17.61
2023-05-21T18:59:10.803Z,17.59
2023-05-21T19:01:58.667Z,17.56
2023-05-21T19:04:46.896Z,17.51
2023-05-21T19:07:36.370Z,17.62
2023-05-21T19:10:24.210Z,17.56
2023-05-21T19:13:12.105Z,17.62
2023-05-21T19:15:59.944Z,17.50
2023-05-21T19:18:48.008Z,17.56
2023-05-21T19:21:36.002Z,17.52
2023-05-21T19:24:25.514Z,17.46
2023-05-21T19:27:13.363Z,17.39
2023-05-21T19:30:01.338Z,17.32
2023-05-21T19:32:51.113Z,17.43
2023-05-21T19:35:39.186Z,17.38
2023-05-21T19:38:27.275Z,17.44
2023-05-21T19:41:16.640Z,17.43
2023-05-21T19:44:04.693Z,17.32
2023-05-21T19:46:52.683Z,17.30
2023-05-21T19:49:40.553Z,17.31
2023-05-21T19:52:28.337Z,17.26
2023-05-21T19:55:20.457Z,17.22
2023-05-21T19:58:13.379Z,17.15
2023-05-21T20:01:01.641Z,17.25
2023-05-21T20:03:49.767Z,17.28
2023-05-21T20:06:38.098Z,17.34
2023-05-21T20:09:28.632Z,17.20
2023-05-21T20:12:16.608Z,17.26
2023-05-21T20:15:08.183Z,17.15
2023-05-21T20:17:59.181Z,17.15
2023-05-21T20:20:47.400Z,17.19
2023-05-21T20:23:38.421Z,17.16
2023-05-21T20:26:27.184Z,17.20
2023-05-21T20:29:15.212Z,17.09
2023-05-21T20:32:04.569Z,17.15
2023-05-21T20:35:02.832Z,17.13
2023-05-21T20:37:52.650Z,17.12
2023-05-21T20:40:40.503Z,17.18
2023-05-21T20:43:28.360Z,17.07
2023-05-21T20:46:18.547Z,17.10
2023-05-21T20:49:08.170Z,17.05
2023-05-21T20:51:56.168Z,17.02
2023-05-21T20:54:46.633Z,16.97
2023-05-21T20:57:34.714Z,17.01
2023-05-21T21:00:22.745Z,16.97
2023-05-21T21:03:11.995Z,17.03
2023-05-21T21:06:02.061Z,16.95
2023-05-21T21:08:50.175Z,16.87
2023-05-21T21:11:37.964Z,16.90
2023-05-21T21:14:25.739Z,16.93
2023-05-21T21:17:13.501Z,16.94
2023-05-21T21:20:01.318Z,16.78
2023-05-21T21:22:51.694Z,16.76
2023-05-21T21:25:39.665Z,16.91
2023-05-21T21:28:27.459Z,16.84
2023-05-21T21:31:17.583Z,16.70
2023-05-21T21:34:05.547Z,16.66
2023-05-21T21:36:56.168Z,16.72
2023-05-21T21:39:45.229Z,16.67
2023-05-21T21:42:32.950Z,16.45
2023-05-21T21:45:20.995Z,16.57
2023-05-21T21:48:08.782Z,16.57
2023-05-21T21:50:56.955Z,16.54
2023-05-21T21:53:44.778Z,16.56
2023-05-21T21:56:33.856Z,16.62
2023-05-21T21:59:22.475Z,16.52
2023-05-21T22:02:10.204Z,16.54
2023-05-21T22:04:58.127Z,16.60
2023-05-21T22:07:47.099Z,16.53
2023-05-21T22:10:38.243Z,16.60
2023-05-21T22:13:29.891Z,16.52
2023-05-21T22:16:17.897Z,16.53
2023-05-21T22:19:05.860Z,16.62
2023-05-21T22:21:54.159Z,16.57
2023-05-21T22:24:42.120Z,16.68
2023-05-21T22:27:29.890Z,16.56
2023-05-21T22:30:19.289Z,16.35
2023-05-21T22:33:07.158Z,16.32
2023-05-21T22:35:54.754Z,16.44
2023-05-21T22:38:43.523Z,16.42
2023-05-21T22:41:31.383Z,16.36
2023-05-21T22:44:19.115Z,16.31
2023-05-21T22:47:09.514Z,16.32
2023-05-21T22:49:58.467Z,16.54
2023-05-21T22:52:46.201Z,16.45
2023-05-21T22:55:33.901Z,16.29
2023-05-21T22:58:21.645Z,16.27
2023-05-21T23:01:09.412Z,16.33
2023-05-21T23:03:58.534Z,16.25
2023-05-21T23:06:46.225Z,16.25
2023-05-21T23:09:33.959Z,16.25
2023-05-21T23:12:21.634Z,16.05
2023-05-21T23:15:10.887Z,16.06
2023-05-21T23:17:59.599Z,16.08
2023-05-21T23:20:48.748Z,16.04
2023-05-21T23:23:36.531Z,15.93
2023-05-21T23:26:25.706Z,15.97
2023-05-21T23:29:13.563Z,15.87
2023-05-21T23:32:01.950Z,15.87
2023-05-21T23:34:49.861Z,15.91
2023-05-21T23:37:39.029Z,15.84
2023-05-21T23:40:26.664Z,15.88
2023-05-21T23:43:14.383Z,15.87
2023-05-21T23:46:02.253Z,15.89
2023-05-21T23:48:50.036Z,15.82
2023-05-21T23:51:37.785Z,15.70
2023-05-21T23:54:26.890Z,15.74
2023-05-21T23:57:14.652Z,15.76
